createdAt,value
2023-01-08T00:01:13.935Z,33.72
2023-01-08T00:03:41.850Z,34.13
2023-01-08T00:06:13.035Z,33.53
2023-01-08T00:08:40.653Z,34.93
2023-01-08T00:11:08.590Z,35.08
2023-01-08T00:13:35.927Z,35.42
2023-01-08T00:16:10.916Z,37.20
2023-01-08T00:18:38.337Z,37.05
2023-01-08T00:21:06.233Z,35.92
2023-01-08T00:23:34.210Z,36.10
2023-01-08T00:26:02.974Z,38.22
2023-01-08T00:28:30.652Z,37.47
2023-01-08T00:30:58.215Z,36.60
2023-01-08T00:33:25.687Z,34.85
2023-01-08T00:35:52.980Z,34.28
2023-01-08T00:38:20.379Z,34.97
2023-01-08T00:40:48.684Z,33.75
2023-01-08T00:43:16.035Z,34.88
2023-01-08T00:45:43.565Z,35.30
2023-01-08T00:48:11.167Z,33.03
2023-01-08T00:50:38.536Z,35.10
2023-01-08T00:53:05.936Z,34.08
2023-01-08T00:55:33.360Z,34.20
2023-01-08T00:58:00.761Z,33.92
2023-01-08T01:00:28.647Z,34.40
2023-01-08T01:02:56.019Z,34.40
2023-01-08T01:05:23.632Z,34.85
2023-01-08T01:07:51.201Z,33.55
2023-01-08T01:10:18.889Z,33.38
2023-01-08T01:12:46.367Z,33.92
2023-01-08T01:15:16.452Z,33.90
2023-01-08T01:17:45.640Z,34.75
2023-01-08T01:20:15.881Z,34.97
2023-01-08T01:22:43.755Z,34.42
2023-01-08T01:25:11.173Z,35.15
2023-01-08T01:27:38.604Z,34.38
2023-01-08T01:30:06.871Z,35.55
2023-01-08T01:32:34.304Z,35.38
2023-01-08T01:35:02.062Z,33.70
2023-01-08T01:37:29.465Z,34.63
2023-01-08T01:39:56.831Z,34.20
2023-01-08T01:42:43.829Z,34.28
2023-01-08T01:45:17.434Z,35.75
2023-01-08T01:47:55.349Z,35.40
2023-01-08T01:50:35.063Z,33.92
2023-01-08T01:53:10.529Z,34.75
2023-01-08T01:55:43.759Z,36.63
2023-01-08T01:58:16.699Z,33.60
2023-01-08T02:00:44.821Z,34.25
2023-01-08T02:03:15.015Z,35.55
2023-01-08T02:05:45.402Z,33.80
2023-01-08T02:08:20.660Z,35.15
2023-01-08T02:11:05.273Z,34.50
2023-01-08T02:13:38.530Z,34.45
2023-01-08T02:16:38.205Z,33.63
2023-01-08T02:19:52.973Z,34.15
2023-01-08T02:22:38.610Z,35.95
2023-01-08T02:25:11.364Z,35.63
2023-01-08T02:27:42.909Z,35.65
2023-01-08T02:30:11.327Z,35.40
2023-01-08T02:32:40.574Z,33.97
2023-01-08T02:35:09.935Z,33.92
2023-01-08T02:37:38.320Z,32.97
2023-01-08T02:40:30.973Z,33.47
2023-01-08T02:42:59.111Z,33.45
2023-01-08T02:45:30.572Z,32.60
2023-01-08T02:48:17.782Z,34.28
2023-01-08T02:50:53.227Z,33.33
2023-01-08T02:53:25.163Z,34.42
2023-01-08T02:55:57.051Z,35.10
2023-01-08T03:00:54.589Z,33.08
2023-01-08T03:03:27.169Z,33.38
2023-01-08T03:06:07.691Z,34.13
2023-01-08T03:08:42.170Z,33.35
2023-01-08T03:11:12.623Z,33.67
2023-01-08T03:13:50.905Z,33.47
2023-01-08T03:16:25.919Z,33.72
2023-01-08T03:19:07.278Z,33.13
2023-01-08T03:21:37.795Z,33.33
2023-01-08T03:24:06.651Z,35.97
2023-01-08T03:26:37.638Z,34.67
2023-01-08T03:29:06.046Z,35.28
2023-01-08T03:31:35.924Z,34.67
2023-01-08T03:34:05.113Z,33.72
2023-01-08T03:36:36.708Z,33.47
2023-01-08T03:39:16.831Z,34.97
2023-01-08T03:41:44.535Z,32.78
2023-01-08T03:44:12.026Z,32.80
2023-01-08T03:46:45.655Z,33.30
2023-01-08T03:49:13.727Z,35.58
2023-01-08T03:51:46.916Z,33.05
2023-01-08T03:54:18.206Z,33.08
2023-01-08T03:56:46.028Z,33.17
2023-01-08T03:59:14.298Z,32.75
2023-01-08T04:01:42.967Z,34.08
2023-01-08T04:04:11.647Z,33.92
2023-01-08T04:06:39.316Z,33.17
2023-01-08T04:09:07.212Z,32.78
2023-01-08T04:11:34.601Z,33.80
2023-01-08T04:14:02.239Z,31.55
2023-01-08T04:16:29.685Z,34.20
2023-01-08T04:18:57.065Z,32.97
2023-01-08T04:21:24.551Z,32.65
2023-01-08T04:23:52.012Z,32.80
2023-01-08T04:26:19.554Z,33.10
2023-01-08T04:28:46.950Z,31.90
2023-01-08T04:31:14.458Z,32.55
2023-01-08T04:33:41.977Z,32.05
2023-01-08T04:36:10.099Z,32.70
2023-01-08T04:38:37.680Z,33.25
2023-01-08T04:41:05.455Z,32.85
2023-01-08T04:43:33.188Z,33.17
2023-01-08T04:46:02.203Z,33.10
2023-01-08T04:48:31.173Z,33.17
2023-01-08T04:51:00.275Z,31.85
2023-01-08T04:53:29.112Z,31.17
2023-01-08T04:55:56.650Z,32.63
2023-01-08T04:58:24.180Z,31.67
2023-01-08T05:00:51.581Z,32.70
2023-01-08T05:03:19.047Z,32.80
2023-01-08T05:05:48.566Z,33.38
2023-01-08T05:08:17.250Z,34.47
2023-01-08T05:10:44.708Z,32.85
2023-01-08T05:13:12.113Z,34.10
2023-01-08T05:15:39.788Z,32.28
2023-01-08T05:18:07.317Z,32.67
2023-01-08T05:20:35.148Z,33.20
2023-01-08T05:23:02.614Z,34.60
2023-01-08T05:25:30.165Z,33.90
2023-01-08T05:27:57.505Z,32.85
2023-01-08T05:30:24.905Z,33.08
2023-01-08T05:32:52.368Z,34.30
2023-01-08T05:35:19.862Z,34.03
2023-01-08T05:37:47.177Z,34.63
2023-01-08T05:40:14.591Z,33.90
2023-01-08T05:42:42.126Z,32.45
2023-01-08T05:45:09.748Z,34.42
2023-01-08T05:47:37.277Z,33.92
2023-01-08T05:50:05.057Z,33.75
2023-01-08T05:52:32.700Z,32.75
2023-01-08T05:55:00.333Z,33.47
2023-01-08T05:57:27.764Z,32.85
2023-01-08T05:59:55.245Z,34.38
2023-01-08T06:02:22.817Z,33.63
2023-01-08T06:04:50.227Z,33.97
2023-01-08T06:07:17.651Z,33.67
2023-01-08T06:09:45.074Z,32.85
2023-01-08T06:12:12.518Z,34.35
2023-01-08T06:14:39.969Z,33.45
2023-01-08T06:17:07.390Z,34.05
2023-01-08T06:19:35.085Z,34.33
2023-01-08T06:22:02.436Z,33.05
2023-01-08T06:24:29.858Z,33.97
2023-01-08T06:26:57.356Z,34.20
2023-01-08T06:29:24.813Z,34.88
2023-01-08T06:31:52.164Z,33.85
2023-01-08T06:34:19.562Z,34.85
2023-01-08T06:36:46.901Z,31.50
2023-01-08T06:39:15.015Z,33.42
2023-01-08T06:41:43.266Z,33.63
2023-01-08T06:44:10.849Z,33.70
2023-01-08T06:46:40.438Z,32.70
2023-01-08T06:49:08.468Z,32.92
2023-01-08T06:51:36.731Z,33.10
2023-01-08T06:54:04.303Z,31.98
2023-01-08T06:56:32.228Z,33.05
2023-01-08T06:59:00.862Z,32.53
2023-01-08T07:01:28.381Z,32.70
2023-01-08T07:03:56.334Z,32.22
2023-01-08T07:06:24.093Z,33.25
2023-01-08T07:08:51.578Z,33.15
2023-01-08T07:11:19.071Z,32.25
2023-01-08T07:13:46.547Z,33.03
2023-01-08T07:16:16.011Z,34.13
2023-01-08T07:18:44.109Z,33.42
2023-01-08T07:21:11.821Z,34.40
2023-01-08T07:23:39.305Z,35.67
2023-01-08T07:26:08.248Z,38.05
2023-01-08T07:28:35.611Z,40.15
2023-01-08T07:31:04.776Z,41.25
2023-01-08T07:33:32.262Z,38.20
2023-01-08T07:35:59.663Z,36.65
2023-01-08T07:38:27.078Z,36.45
2023-01-08T07:40:54.494Z,37.53
2023-01-08T07:43:21.911Z,36.90
2023-01-08T07:45:49.348Z,35.85
2023-01-08T07:48:16.833Z,35.00
2023-01-08T07:50:44.523Z,35.88
2023-01-08T07:53:13.750Z,35.25
2023-01-08T07:55:41.139Z,34.25
2023-01-08T07:58:10.219Z,36.03
2023-01-08T08:00:37.661Z,35.08
2023-01-08T08:03:06.865Z,35.53
2023-01-08T08:05:35.155Z,34.15
2023-01-08T08:08:07.559Z,34.35
2023-01-08T08:10:35.181Z,34.50
2023-01-08T08:13:02.663Z,33.20
2023-01-08T08:15:30.067Z,33.30
2023-01-08T08:17:57.717Z,31.42
2023-01-08T08:20:25.579Z,31.63
2023-01-08T08:22:59.878Z,32.22
2023-01-08T08:25:27.422Z,32.75
2023-01-08T08:27:57.780Z,32.00
2023-01-08T08:30:26.896Z,32.05
2023-01-08T08:32:55.020Z,31.20
2023-01-08T08:35:22.678Z,31.15
2023-01-08T08:37:50.142Z,31.30
2023-01-08T08:40:17.624Z,30.90
2023-01-08T08:42:45.392Z,30.30
2023-01-08T08:45:12.784Z,31.73
2023-01-08T08:47:40.828Z,32.13
2023-01-08T08:50:08.429Z,30.55
2023-01-08T08:52:37.524Z,29.92
2023-01-08T08:55:06.122Z,31.27
2023-01-08T08:57:33.514Z,30.45
2023-01-08T09:00:01.433Z,30.90
2023-01-08T09:02:29.478Z,30.15
2023-01-08T09:04:56.961Z,30.00
2023-01-08T09:07:24.483Z,29.92
2023-01-08T09:09:51.924Z,30.00
2023-01-08T09:12:19.321Z,29.90
2023-01-08T09:14:46.705Z,29.17
2023-01-08T09:17:14.104Z,29.95
2023-01-08T09:19:41.386Z,30.98
2023-01-08T09:22:08.682Z,30.17
2023-01-08T09:24:36.173Z,29.17
2023-01-08T09:27:03.929Z,30.30
2023-01-08T09:29:31.244Z,28.38
2023-01-08T09:32:00.566Z,28.75
2023-01-08T09:34:28.093Z,28.17
2023-01-08T09:36:55.503Z,28.65
2023-01-08T09:39:22.821Z,29.30
2023-01-08T09:41:51.941Z,29.13
2023-01-08T09:44:25.310Z,29.25
2023-01-08T09:46:56.026Z,27.88
2023-01-08T09:49:30.779Z,28.05
2023-01-08T09:51:59.243Z,27.40
2023-01-08T09:54:27.242Z,27.90
2023-01-08T09:56:54.931Z,27.58
2023-01-08T09:59:22.424Z,27.63
2023-01-08T10:01:52.432Z,28.35
2023-01-08T10:04:22.443Z,28.25
2023-01-08T10:06:56.988Z,27.83
2023-01-08T10:09:28.274Z,29.25
2023-01-08T10:12:00.528Z,28.25
2023-01-08T10:14:39.763Z,28.70
2023-01-08T10:17:22.224Z,28.17
2023-01-08T10:19:49.614Z,28.13
2023-01-08T10:22:19.988Z,27.30
2023-01-08T10:24:47.644Z,28.25
2023-01-08T10:27:24.182Z,27.63
2023-01-08T10:29:52.419Z,27.00
2023-01-08T10:32:28.868Z,27.73
2023-01-08T10:34:57.648Z,27.08
2023-01-08T10:37:42.469Z,28.50
2023-01-08T10:40:35.157Z,27.85
2023-01-08T10:43:28.093Z,28.15
2023-01-08T10:46:05.253Z,27.67
2023-01-08T10:48:44.574Z,26.98
2023-01-08T10:51:19.876Z,27.50
2023-01-08T10:53:47.725Z,26.73
2023-01-08T10:56:27.339Z,27.27
2023-01-08T10:58:55.194Z,27.83
2023-01-08T11:01:25.538Z,26.23
2023-01-08T11:04:05.102Z,26.15
2023-01-08T11:06:40.843Z,25.88
2023-01-08T11:09:25.634Z,25.08
2023-01-08T11:11:52.988Z,26.38
2023-01-08T11:14:28.004Z,25.80
2023-01-08T11:16:56.134Z,24.30
2023-01-08T11:19:29.608Z,24.73
2023-01-08T11:22:02.804Z,25.45
2023-01-08T11:24:35.244Z,24.13
2023-01-08T11:27:16.857Z,26.00
2023-01-08T11:29:53.725Z,26.00
2023-01-08T11:32:23.743Z,25.00
2023-01-08T11:34:53.725Z,25.23
2023-01-08T11:37:26.377Z,24.60
2023-01-08T11:39:55.740Z,28.48
2023-01-08T11:42:41.486Z,26.38
2023-01-08T11:45:21.099Z,25.40
2023-01-08T11:48:09.372Z,24.45
2023-01-08T11:51:04.658Z,25.52
2023-01-08T11:53:47.141Z,26.27
2023-01-08T11:56:42.848Z,26.08
2023-01-08T11:59:22.896Z,26.65
2023-01-08T12:02:24.489Z,25.15
2023-01-08T12:05:24.095Z,23.67
2023-01-08T12:08:05.426Z,23.40
2023-01-08T12:10:43.606Z,22.97
2023-01-08T12:14:01.909Z,22.80
2023-01-08T12:16:38.155Z,22.52
2023-01-08T12:19:05.439Z,23.13
2023-01-08T12:21:36.857Z,22.48
2023-01-08T12:24:19.453Z,21.48
2023-01-08T12:27:05.220Z,22.33
2023-01-08T12:29:55.395Z,23.10
2023-01-08T12:32:56.570Z,22.63
2023-01-08T12:35:40.827Z,23.38
2023-01-08T12:38:30.421Z,23.83
2023-01-08T12:41:04.998Z,22.08
2023-01-08T12:43:38.608Z,23.20
2023-01-08T12:46:07.034Z,24.58
2023-01-08T12:48:36.745Z,23.50
2023-01-08T12:51:21.118Z,23.67
2023-01-08T12:54:16.337Z,22.92
2023-01-08T12:56:57.029Z,22.13
2023-01-08T12:59:36.627Z,22.00
2023-01-08T13:02:15.434Z,22.50
2023-01-08T13:04:46.379Z,21.85
2023-01-08T13:07:35.946Z,23.15
2023-01-08T13:10:08.029Z,22.50
2023-01-08T13:12:37.774Z,21.85
2023-01-08T13:15:06.885Z,20.67
2023-01-08T13:17:34.812Z,20.33
2023-01-08T13:20:06.424Z,23.00
2023-01-08T13:22:35.963Z,23.20
2023-01-08T13:25:15.443Z,24.60
2023-01-08T13:27:43.671Z,22.30
2023-01-08T13:30:35.542Z,22.70
2023-01-08T13:33:03.083Z,23.83
2023-01-08T13:35:31.906Z,24.05
2023-01-08T13:38:21.048Z,22.70
2023-01-08T13:40:51.256Z,23.65
2023-01-08T13:46:17.370Z,22.02
2023-01-08T13:48:56.983Z,18.92
2023-01-08T13:51:43.372Z,17.52
2023-01-08T13:54:14.120Z,17.38
2023-01-08T13:56:43.735Z,17.67
2023-01-08T13:59:31.315Z,17.02
2023-01-08T14:02:01.391Z,16.85
2023-01-08T14:04:28.845Z,16.30
2023-01-08T14:07:14.736Z,15.60
2023-01-08T14:09:42.108Z,16.00
2023-01-08T14:12:20.436Z,15.85
2023-01-08T14:14:54.180Z,16.33
2023-01-08T14:17:28.868Z,15.65
2023-01-08T14:19:56.754Z,16.20
2023-01-08T14:22:31.033Z,16.00
2023-01-08T14:25:02.611Z,15.23
2023-01-08T14:27:31.605Z,16.17
2023-01-08T14:29:59.238Z,16.50
2023-01-08T14:32:29.448Z,15.45
2023-01-08T14:34:59.678Z,14.68
2023-01-08T14:37:27.178Z,15.27
2023-01-08T14:39:55.285Z,15.80
2023-01-08T14:42:47.095Z,14.73
2023-01-08T14:45:21.564Z,15.30
2023-01-08T14:47:52.363Z,14.93
2023-01-08T14:50:33.663Z,14.45
2023-01-08T14:53:07.721Z,14.57
2023-01-08T14:55:41.875Z,14.52
2023-01-08T14:58:20.558Z,14.00
2023-01-08T15:00:54.240Z,14.90
2023-01-08T15:03:36.533Z,14.65
2023-01-08T15:06:07.494Z,15.23
2023-01-08T15:08:39.492Z,13.97
2023-01-08T15:13:42.908Z,15.45
2023-01-08T15:16:16.834Z,16.42
2023-01-08T15:19:02.996Z,16.42
2023-01-08T15:21:31.037Z,16.50
2023-01-08T15:24:01.101Z,15.98
2023-01-08T15:26:28.997Z,15.90
2023-01-08T15:29:00.140Z,16.50
2023-01-08T15:31:46.785Z,16.45
2023-01-08T15:34:16.071Z,16.35
2023-01-08T15:36:43.445Z,16.23
2023-01-08T15:39:10.880Z,17.58
2023-01-08T15:41:58.447Z,17.77
2023-01-08T15:44:26.157Z,18.48
2023-01-08T15:46:54.327Z,19.73
2023-01-08T15:49:21.690Z,18.02
2023-01-08T15:51:51.211Z,19.10
2023-01-08T15:54:20.709Z,19.63
2023-01-08T15:56:48.080Z,18.55
2023-01-08T15:59:15.442Z,18.48
2023-01-08T16:01:42.885Z,19.92
2023-01-08T16:04:10.331Z,19.63
2023-01-08T16:06:37.877Z,19.20
2023-01-08T16:09:05.331Z,18.85
2023-01-08T16:11:32.671Z,19.80
2023-01-08T16:14:00.011Z,18.85
2023-01-08T16:16:27.343Z,19.33
2023-01-08T16:18:54.754Z,17.65
2023-01-08T16:21:22.073Z,16.98
2023-01-08T16:23:49.458Z,18.77
2023-01-08T16:26:16.854Z,17.20
2023-01-08T16:28:44.423Z,18.00
2023-01-08T16:31:12.931Z,16.98
2023-01-08T16:33:40.343Z,16.35
2023-01-08T16:36:08.794Z,15.52
2023-01-08T16:38:36.900Z,16.75
2023-01-08T16:41:04.771Z,17.80
2023-01-08T16:43:39.747Z,15.30
2023-01-08T16:46:15.118Z,16.20
2023-01-08T16:48:42.881Z,15.20
2023-01-08T16:51:11.019Z,15.63
2023-01-08T16:53:38.800Z,16.25
2023-01-08T16:56:06.609Z,14.90
2023-01-08T16:58:35.091Z,15.18
2023-01-08T17:01:07.914Z,16.17
2023-01-08T17:03:35.495Z,16.05
2023-01-08T17:06:07.549Z,16.10
2023-01-08T17:08:39.915Z,14.20
2023-01-08T17:11:12.686Z,14.40
2023-01-08T17:13:40.545Z,14.27
2023-01-08T17:16:10.230Z,14.85
2023-01-08T17:18:38.249Z,13.45
2023-01-08T17:21:07.679Z,14.43
2023-01-08T17:23:35.988Z,14.38
2023-01-08T17:26:08.855Z,13.65
2023-01-08T17:28:36.942Z,13.32
2023-01-08T17:31:07.579Z,13.13
2023-01-08T17:33:36.119Z,12.73
2023-01-08T17:36:22.622Z,11.02
2023-01-08T17:38:50.815Z,11.73
2023-01-08T17:41:37.300Z,11.80
2023-01-08T17:44:06.998Z,11.70
2023-01-08T17:46:43.865Z,10.85
2023-01-08T17:49:13.773Z,10.35
2023-01-08T17:51:42.263Z,10.55
2023-01-08T17:54:15.357Z,10.55
2023-01-08T17:56:43.701Z,10.48
2023-01-08T17:59:15.964Z,10.15
2023-01-08T18:01:45.278Z,9.70
2023-01-08T18:04:14.313Z,10.95
2023-01-08T18:07:06.960Z,10.52
2023-01-08T18:09:36.741Z,11.85
2023-01-08T18:12:04.554Z,11.52
2023-01-08T18:14:32.135Z,11.13
2023-01-08T18:16:59.474Z,12.68
2023-01-08T18:19:26.876Z,12.13
2023-01-08T18:21:54.960Z,10.68
2023-01-08T18:24:22.351Z,10.80
2023-01-08T18:26:50.229Z,11.75
2023-01-08T18:29:17.565Z,11.25
2023-01-08T18:31:46.296Z,11.05
2023-01-08T18:34:15.172Z,11.20
2023-01-08T18:36:42.773Z,10.65
2023-01-08T18:39:11.991Z,11.27
2023-01-08T18:41:57.752Z,12.00
2023-01-08T18:44:25.189Z,12.95
2023-01-08T18:46:52.608Z,12.25
2023-01-08T18:49:20.351Z,11.25
2023-01-08T18:51:47.891Z,10.85
2023-01-08T18:54:15.677Z,11.27
2023-01-08T18:56:43.018Z,11.35
2023-01-08T18:59:11.179Z,10.50
2023-01-08T19:01:39.028Z,12.00
2023-01-08T19:04:06.886Z,11.88
2023-01-08T19:06:35.077Z,11.93
2023-01-08T19:09:02.443Z,11.30
2023-01-08T19:11:29.825Z,10.75
2023-01-08T19:13:57.745Z,11.20
2023-01-08T19:16:25.740Z,10.73
2023-01-08T19:18:53.372Z,10.55
2023-01-08T19:21:21.636Z,10.30
2023-01-08T19:23:49.087Z,10.32
2023-01-08T19:26:16.991Z,9.95
2023-01-08T19:28:44.517Z,8.45
2023-01-08T19:31:15.640Z,9.38
2023-01-08T19:33:43.315Z,9.10
2023-01-08T19:36:16.056Z,10.80
2023-01-08T19:38:44.385Z,12.50
2023-01-08T19:41:31.207Z,11.50
2023-01-08T19:43:59.459Z,12.70
2023-01-08T19:46:27.593Z,12.48
2023-01-08T19:49:00.173Z,11.52
2023-01-08T19:51:29.240Z,10.80
2023-01-08T19:53:58.148Z,11.32
2023-01-08T19:56:25.866Z,10.90
2023-01-08T19:58:54.525Z,10.70
2023-01-08T20:01:27.939Z,10.52
2023-01-08T20:03:56.400Z,10.98
2023-01-08T20:06:26.838Z,12.07
2023-01-08T20:08:59.532Z,12.93
2023-01-08T20:11:28.225Z,11.30
2023-01-08T20:13:56.226Z,11.00
2023-01-08T20:16:24.477Z,10.48
2023-01-08T20:18:56.502Z,11.50
2023-01-08T20:21:24.216Z,12.90
2023-01-08T20:24:00.470Z,11.88
2023-01-08T20:26:29.048Z,11.38
2023-01-08T20:28:57.875Z,10.93
2023-01-08T20:31:29.569Z,10.50
2023-01-08T20:33:58.668Z,9.35
2023-01-08T20:36:29.571Z,7.07
2023-01-08T20:38:59.270Z,6.85
2023-01-08T20:41:27.077Z,6.88
2023-01-08T20:43:57.886Z,6.22
2023-01-08T20:46:29.866Z,5.35
2023-01-08T20:51:27.191Z,5.70
2023-01-08T20:53:54.528Z,6.30
2023-01-08T20:56:21.980Z,4.93
2023-01-08T20:58:50.130Z,4.78
2023-01-08T21:01:23.087Z,4.43
2023-01-08T21:03:56.649Z,4.03
2023-01-08T21:06:27.087Z,4.13
2023-01-08T21:08:56.846Z,4.30
2023-01-08T21:11:25.767Z,4.22
2023-01-08T21:13:55.498Z,4.88
2023-01-08T21:16:25.386Z,5.53
2023-01-08T21:18:54.301Z,4.78
2023-01-08T21:21:29.672Z,4.47
2023-01-08T21:23:57.431Z,4.18
2023-01-08T21:26:24.831Z,5.10
2023-01-08T21:28:52.999Z,4.10
2023-01-08T21:31:23.269Z,3.30
2023-01-08T21:33:51.402Z,3.40
2023-01-08T21:36:21.963Z,3.05
2023-01-08T21:38:50.218Z,3.38
2023-01-08T21:41:43.888Z,3.65
2023-01-08T21:44:35.887Z,3.10
2023-01-08T21:47:05.365Z,3.33
2023-01-08T21:49:32.989Z,3.08
2023-01-08T21:52:19.053Z,2.90
2023-01-08T21:54:46.464Z,3.00
2023-01-08T21:57:13.787Z,3.22
2023-01-08T21:59:41.138Z,2.67
2023-01-08T22:02:15.379Z,2.75
2023-01-08T22:04:43.887Z,3.08
2023-01-08T22:07:11.755Z,3.08
2023-01-08T22:09:39.310Z,2.50
2023-01-08T22:12:07.271Z,2.85
2023-01-08T22:14:35.296Z,3.05
2023-01-08T22:17:04.131Z,2.75
2023-01-08T22:19:31.645Z,2.55
2023-01-08T22:21:59.032Z,2.85
2023-01-08T22:24:26.389Z,2.63
2023-01-08T22:26:53.807Z,2.85
2023-01-08T22:29:21.151Z,2.47
2023-01-08T22:31:48.553Z,2.53
2023-01-08T22:34:17.591Z,2.00
2023-01-08T22:36:53.940Z,1.98
2023-01-08T22:39:21.333Z,2.10
2023-01-08T22:41:50.077Z,1.83
2023-01-08T22:44:18.346Z,1.58
2023-01-08T22:46:45.762Z,1.33
2023-01-08T22:49:13.700Z,1.08
2023-01-08T22:51:44.419Z,1.50
2023-01-08T22:54:12.945Z,1.20
2023-01-08T22:56:40.705Z,1.05
2023-01-08T22:59:08.046Z,0.90
2023-01-08T23:01:35.870Z,0.90
2023-01-08T23:04:04.008Z,0.90
2023-01-08T23:06:32.140Z,0.60
2023-01-08T23:09:00.023Z,0.63
2023-01-08T23:11:28.292Z,0.98
2023-01-08T23:13:56.435Z,0.70
2023-01-08T23:16:25.640Z,0.80
2023-01-08T23:18:54.597Z,0.63
2023-01-08T23:21:23.675Z,0.80
2023-01-08T23:23:51.100Z,0.80
2023-01-08T23:26:21.551Z,0.80
2023-01-08T23:28:50.173Z,0.50
2023-01-08T23:31:21.205Z,0.68
2023-01-08T23:33:49.203Z,0.63
2023-01-08T23:36:21.026Z,0.50
2023-01-08T23:38:53.142Z,0.82
2023-01-08T23:41:23.150Z,0.60
2023-01-08T23:43:50.510Z,0.73
2023-01-08T23:46:18.235Z,0.70
2023-01-08T23:48:45.606Z,0.60
2023-01-08T23:51:13.042Z,0.50
2023-01-08T23:53:40.349Z,1.08
2023-01-08T23:56:07.958Z,0.93
2023-01-08T23:58:35.983Z,0.73
